Dalry, United Kingdom
Current Conditions -  °F | °C
As of 2:50 AM on Saturday 20 Dec 2014 (Local Time) from EGPK Reporting Station
Rain Showers Rain Showers  
Wind Chill: 37°   Ceiling: Unl
Heat Index: 45°   Visibility: 6mi
Dew Point: 39°   Wind: 18mph
Humidity: 81%   Direction: 280°W
Pressure: 29.94"   Gusts: NA
Location:  55.68°N, 4.72°W
Report Text: EGPK 200250Z 28016KT 9999 -SHRA SCT025 07/04 Q1014
Loading
Personal Weather Stations






























Interactive Weather Map New forecast layout! Learn more

10-Day Weather Forecast

Advertisements
Track Severe Weather on mobile